sensor_id;sensor_type;location;lat;lon;timestamp;P1;durP1;ratioP1;P2;durP2;ratioP2
12725;SDS011;6427;49.754;6.106;2022-11-15T00:02:25;22.13;;;13.43;;
12725;SDS011;6427;49.754;6.106;2022-11-15T00:04:52;23.23;;;13.87;;
12725;SDS011;6427;49.754;6.106;2022-11-15T00:07:20;21.23;;;14.10;;
12725;SDS011;6427;49.754;6.106;2022-11-15T00:09:47;21.07;;;13.93;;
12725;SDS011;6427;49.754;6.106;2022-11-15T00:12:15;22.47;;;13.60;;
12725;SDS011;6427;49.754;6.106;2022-11-15T00:14:43;22.57;;;14.40;;
12725;SDS011;6427;49.754;6.106;2022-11-15T00:17:11;22.60;;;14.17;;
12725;SDS011;6427;49.754;6.106;2022-11-15T00:19:39;17.90;;;13.37;;
12725;SDS011;6427;49.754;6.106;2022-11-15T00:22:07;19.87;;;14.23;;
12725;SDS011;6427;49.754;6.106;2022-11-15T00:24:35;19.57;;;13.13;;
12725;SDS011;6427;49.754;6.106;2022-11-15T00:27:02;24.40;;;13.37;;
12725;SDS011;6427;49.754;6.106;2022-11-15T00:29:30;19.17;;;12.90;;
12725;SDS011;6427;49.754;6.106;2022-11-15T00:31:57;24.40;;;16.75;;
12725;SDS011;6427;49.754;6.106;2022-11-15T00:34:25;25.55;;;16.45;;
12725;SDS011;6427;49.754;6.106;2022-11-15T00:36:53;21.13;;;13.77;;
12725;SDS011;6427;49.754;6.106;2022-11-15T00:39:21;19.53;;;13.00;;
12725;SDS011;6427;49.754;6.106;2022-11-15T00:41:48;16.60;;;11.17;;
12725;SDS011;6427;49.754;6.106;2022-11-15T00:44:16;18.97;;;11.73;;
12725;SDS011;6427;49.754;6.106;2022-11-15T00:46:43;18.73;;;11.60;;
12725;SDS011;6427;49.754;6.106;2022-11-15T00:49:12;18.90;;;12.30;;
12725;SDS011;6427;49.754;6.106;2022-11-15T00:51:39;16.97;;;11.73;;
12725;SDS011;6427;49.754;6.106;2022-11-15T00:54:07;18.73;;;11.37;;
12725;SDS011;6427;49.754;6.106;2022-11-15T00:56:34;21.70;;;11.93;;
12725;SDS011;6427;49.754;6.106;2022-11-15T00:59:02;15.23;;;10.67;;
12725;SDS011;6427;49.754;6.106;2022-11-15T01:01:30;16.83;;;12.23;;
12725;SDS011;6427;49.754;6.106;2022-11-15T01:03:59;17.57;;;11.00;;
12725;SDS011;6427;49.754;6.106;2022-11-15T01:06:26;15.63;;;11.27;;
12725;SDS011;6427;49.754;6.106;2022-11-15T01:08:54;19.50;;;11.23;;
12725;SDS011;6427;49.754;6.106;2022-11-15T01:11:22;15.97;;;11.00;;
12725;SDS011;6427;49.754;6.106;2022-11-15T01:13:51;16.93;;;10.73;;
12725;SDS011;6427;49.754;6.106;2022-11-15T01:16:18;15.20;;;10.80;;
12725;SDS011;6427;49.754;6.106;2022-11-15T01:18:46;15.20;;;10.67;;
12725;SDS011;6427;49.754;6.106;2022-11-15T01:21:14;14.90;;;10.23;;
12725;SDS011;6427;49.754;6.106;2022-11-15T01:23:41;20.20;;;10.37;;
12725;SDS011;6427;49.754;6.106;2022-11-15T01:26:10;14.80;;;10.03;;
12725;SDS011;6427;49.754;6.106;2022-11-15T01:28:37;15.10;;;10.03;;
12725;SDS011;6427;49.754;6.106;2022-11-15T01:31:05;16.23;;;10.03;;
12725;SDS011;6427;49.754;6.106;2022-11-15T01:33:33;13.00;;;9.00;;
12725;SDS011;6427;49.754;6.106;2022-11-15T01:36:02;13.03;;;8.97;;
12725;SDS011;6427;49.754;6.106;2022-11-15T01:38:27;15.13;;;9.20;;
12725;SDS011;6427;49.754;6.106;2022-11-15T01:40:56;14.20;;;9.03;;
12725;SDS011;6427;49.754;6.106;2022-11-15T01:43:28;14.20;;;7.97;;
12725;SDS011;6427;49.754;6.106;2022-11-15T01:45:55;9.57;;;7.10;;
12725;SDS011;6427;49.754;6.106;2022-11-15T01:48:19;10.57;;;6.90;;
12725;SDS011;6427;49.754;6.106;2022-11-15T01:50:47;9.60;;;5.87;;
12725;SDS011;6427;49.754;6.106;2022-11-15T01:53:15;9.00;;;6.17;;
12725;SDS011;6427;49.754;6.106;2022-11-15T01:55:43;6.80;;;5.27;;
12725;SDS011;6427;49.754;6.106;2022-11-15T01:58:10;7.87;;;6.30;;
12725;SDS011;6427;49.754;6.106;2022-11-15T02:00:38;8.80;;;5.57;;
12725;SDS011;6427;49.754;6.106;2022-11-15T02:03:06;6.63;;;4.53;;
12725;SDS011;6427;49.754;6.106;2022-11-15T02:05:33;6.57;;;4.63;;
12725;SDS011;6427;49.754;6.106;2022-11-15T02:08:01;7.23;;;4.77;;
12725;SDS011;6427;49.754;6.106;2022-11-15T02:10:28;8.03;;;4.47;;
12725;SDS011;6427;49.754;6.106;2022-11-15T02:12:56;6.63;;;4.97;;
12725;SDS011;6427;49.754;6.106;2022-11-15T02:15:25;5.73;;;4.40;;
12725;SDS011;6427;49.754;6.106;2022-11-15T02:23:13;5.80;;;3.70;;
12725;SDS011;6427;49.754;6.106;2022-11-15T02:29:06;5.63;;;3.60;;
12725;SDS011;6427;49.754;6.106;2022-11-15T02:31:56;6.63;;;4.00;;
12725;SDS011;6427;49.754;6.106;2022-11-15T02:34:28;4.33;;;3.23;;
12725;SDS011;6427;49.754;6.106;2022-11-15T02:37:02;4.80;;;3.40;;
12725;SDS011;6427;49.754;6.106;2022-11-15T02:39:40;7.50;;;3.70;;
12725;SDS011;6427;49.754;6.106;2022-11-15T02:42:12;4.67;;;3.70;;
12725;SDS011;6427;49.754;6.106;2022-11-15T02:44:41;4.80;;;3.23;;
12725;SDS011;6427;49.754;6.106;2022-11-15T02:47:07;5.20;;;3.60;;
12725;SDS011;6427;49.754;6.106;2022-11-15T02:49:47;4.37;;;3.23;;
12725;SDS011;6427;49.754;6.106;2022-11-15T02:52:17;6.20;;;3.70;;
12725;SDS011;6427;49.754;6.106;2022-11-15T02:54:52;4.57;;;4.10;;
12725;SDS011;6427;49.754;6.106;2022-11-15T02:57:23;3.57;;;3.20;;
12725;SDS011;6427;49.754;6.106;2022-11-15T03:02:20;4.93;;;3.17;;
12725;SDS011;6427;49.754;6.106;2022-11-15T03:07:52;3.83;;;2.53;;
12725;SDS011;6427;49.754;6.106;2022-11-15T03:16:15;3.93;;;2.37;;
12725;SDS011;6427;49.754;6.106;2022-11-15T03:18:40;4.90;;;2.20;;
12725;SDS011;6427;49.754;6.106;2022-11-15T03:21:07;7.10;;;2.50;;
12725;SDS011;6427;49.754;6.106;2022-11-15T03:23:34;2.70;;;2.50;;
12725;SDS011;6427;49.754;6.106;2022-11-15T03:26:01;4.80;;;2.70;;
12725;SDS011;6427;49.754;6.106;2022-11-15T03:28:33;7.03;;;2.40;;
12725;SDS011;6427;49.754;6.106;2022-11-15T03:30:59;3.70;;;2.53;;
12725;SDS011;6427;49.754;6.106;2022-11-15T03:33:27;5.13;;;2.43;;
12725;SDS011;6427;49.754;6.106;2022-11-15T03:35:54;4.62;;;2.80;;
12725;SDS011;6427;49.754;6.106;2022-11-15T03:38:25;3.30;;;2.27;;
12725;SDS011;6427;49.754;6.106;2022-11-15T03:41:00;6.00;;;2.63;;
12725;SDS011;6427;49.754;6.106;2022-11-15T03:43:44;7.00;;;2.67;;
12725;SDS011;6427;49.754;6.106;2022-11-15T03:46:38;2.57;;;2.13;;
12725;SDS011;6427;49.754;6.106;2022-11-15T03:48:59;4.57;;;2.40;;
12725;SDS011;6427;49.754;6.106;2022-11-15T03:51:18;4.53;;;2.00;;
12725;SDS011;6427;49.754;6.106;2022-11-15T03:53:46;4.50;;;2.53;;
12725;SDS011;6427;49.754;6.106;2022-11-15T03:56:13;3.60;;;1.93;;
12725;SDS011;6427;49.754;6.106;2022-11-15T03:58:41;2.57;;;1.93;;
12725;SDS011;6427;49.754;6.106;2022-11-15T04:01:09;4.03;;;2.23;;
12725;SDS011;6427;49.754;6.106;2022-11-15T04:03:36;3.20;;;2.20;;
12725;SDS011;6427;49.754;6.106;2022-11-15T04:06:04;5.27;;;2.03;;
12725;SDS011;6427;49.754;6.106;2022-11-15T04:08:32;3.67;;;2.50;;
12725;SDS011;6427;49.754;6.106;2022-11-15T04:11:00;3.93;;;1.80;;
12725;SDS011;6427;49.754;6.106;2022-11-15T04:13:28;5.17;;;2.00;;
12725;SDS011;6427;49.754;6.106;2022-11-15T04:15:56;3.57;;;2.20;;
12725;SDS011;6427;49.754;6.106;2022-11-15T04:18:24;3.17;;;2.10;;
12725;SDS011;6427;49.754;6.106;2022-11-15T04:20:51;3.80;;;2.27;;
12725;SDS011;6427;49.754;6.106;2022-11-15T04:23:37;6.20;;;2.53;;
12725;SDS011;6427;49.754;6.106;2022-11-15T04:26:18;2.90;;;2.20;;
12725;SDS011;6427;49.754;6.106;2022-11-15T04:28:44;2.90;;;2.30;;
12725;SDS011;6427;49.754;6.106;2022-11-15T04:31:30;4.17;;;2.50;;
12725;SDS011;6427;49.754;6.106;2022-11-15T04:33:57;2.77;;;2.13;;
12725;SDS011;6427;49.754;6.106;2022-11-15T04:36:25;4.95;;;2.50;;
12725;SDS011;6427;49.754;6.106;2022-11-15T04:39:11;3.70;;;2.03;;
12725;SDS011;6427;49.754;6.106;2022-11-15T04:41:39;2.63;;;2.03;;
12725;SDS011;6427;49.754;6.106;2022-11-15T04:44:06;3.70;;;2.10;;
12725;SDS011;6427;49.754;6.106;2022-11-15T04:46:34;2.47;;;1.90;;
12725;SDS011;6427;49.754;6.106;2022-11-15T04:49:02;4.10;;;2.00;;
12725;SDS011;6427;49.754;6.106;2022-11-15T04:51:30;4.67;;;2.20;;
12725;SDS011;6427;49.754;6.106;2022-11-15T04:53:57;4.57;;;2.20;;
12725;SDS011;6427;49.754;6.106;2022-11-15T04:56:26;3.30;;;1.90;;
12725;SDS011;6427;49.754;6.106;2022-11-15T04:58:53;4.60;;;2.20;;
12725;SDS011;6427;49.754;6.106;2022-11-15T05:01:21;4.10;;;1.90;;
12725;SDS011;6427;49.754;6.106;2022-11-15T05:03:48;7.12;;;2.70;;
12725;SDS011;6427;49.754;6.106;2022-11-15T05:06:34;4.90;;;2.03;;
12725;SDS011;6427;49.754;6.106;2022-11-15T05:09:03;5.77;;;2.33;;
12725;SDS011;6427;49.754;6.106;2022-11-15T05:11:29;3.73;;;2.00;;
12725;SDS011;6427;49.754;6.106;2022-11-15T05:14:16;2.30;;;1.87;;
12725;SDS011;6427;49.754;6.106;2022-11-15T05:16:44;4.65;;;2.33;;
12725;SDS011;6427;49.754;6.106;2022-11-15T05:19:12;6.17;;;2.27;;
12725;SDS011;6427;49.754;6.106;2022-11-15T05:21:40;4.37;;;2.20;;
12725;SDS011;6427;49.754;6.106;2022-11-15T05:24:09;5.63;;;2.03;;
12725;SDS011;6427;49.754;6.106;2022-11-15T05:26:35;2.77;;;1.93;;
12725;SDS011;6427;49.754;6.106;2022-11-15T05:29:03;2.90;;;2.07;;
12725;SDS011;6427;49.754;6.106;2022-11-15T05:31:31;4.50;;;1.97;;
12725;SDS011;6427;49.754;6.106;2022-11-15T05:33:58;3.63;;;2.03;;
12725;SDS011;6427;49.754;6.106;2022-11-15T05:36:28;5.27;;;2.30;;
12725;SDS011;6427;49.754;6.106;2022-11-15T05:38:56;3.93;;;2.00;;
12725;SDS011;6427;49.754;6.106;2022-11-15T05:41:27;5.20;;;2.30;;
12725;SDS011;6427;49.754;6.106;2022-11-15T05:43:52;3.27;;;1.80;;
12725;SDS011;6427;49.754;6.106;2022-11-15T05:46:20;2.47;;;1.70;;
12725;SDS011;6427;49.754;6.106;2022-11-15T05:48:48;2.63;;;1.60;;
12725;SDS011;6427;49.754;6.106;2022-11-15T05:51:15;2.97;;;2.10;;
12725;SDS011;6427;49.754;6.106;2022-11-15T05:53:43;6.53;;;1.90;;
12725;SDS011;6427;49.754;6.106;2022-11-15T05:56:10;3.07;;;2.13;;
12725;SDS011;6427;49.754;6.106;2022-11-15T05:58:38;4.13;;;1.80;;
12725;SDS011;6427;49.754;6.106;2022-11-15T06:01:06;3.60;;;1.67;;
12725;SDS011;6427;49.754;6.106;2022-11-15T06:03:34;3.10;;;2.10;;
12725;SDS011;6427;49.754;6.106;2022-11-15T06:06:01;5.27;;;2.00;;
12725;SDS011;6427;49.754;6.106;2022-11-15T06:08:29;3.33;;;1.90;;
12725;SDS011;6427;49.754;6.106;2022-11-15T06:10:56;2.97;;;1.80;;
12725;SDS011;6427;49.754;6.106;2022-11-15T06:13:24;3.70;;;2.17;;
12725;SDS011;6427;49.754;6.106;2022-11-15T06:15:54;3.17;;;2.00;;
12725;SDS011;6427;49.754;6.106;2022-11-15T06:18:20;6.60;;;2.43;;
12725;SDS011;6427;49.754;6.106;2022-11-15T06:20:47;5.57;;;1.80;;
12725;SDS011;6427;49.754;6.106;2022-11-15T06:23:15;4.13;;;2.10;;
12725;SDS011;6427;49.754;6.106;2022-11-15T06:25:42;4.20;;;2.20;;
12725;SDS011;6427;49.754;6.106;2022-11-15T06:28:10;5.50;;;1.63;;
12725;SDS011;6427;49.754;6.106;2022-11-15T06:30:38;5.30;;;2.12;;
12725;SDS011;6427;49.754;6.106;2022-11-15T06:33:05;4.73;;;2.03;;
12725;SDS011;6427;49.754;6.106;2022-11-15T06:35:33;2.00;;;1.67;;
12725;SDS011;6427;49.754;6.106;2022-11-15T06:38:02;5.63;;;1.67;;
12725;SDS011;6427;49.754;6.106;2022-11-15T06:40:28;2.50;;;1.27;;
12725;SDS011;6427;49.754;6.106;2022-11-15T06:42:59;3.47;;;1.70;;
12725;SDS011;6427;49.754;6.106;2022-11-15T06:45:27;2.53;;;1.70;;
12725;SDS011;6427;49.754;6.106;2022-11-15T06:47:57;4.43;;;1.77;;
12725;SDS011;6427;49.754;6.106;2022-11-15T06:50:22;5.97;;;2.50;;
12725;SDS011;6427;49.754;6.106;2022-11-15T06:52:49;4.57;;;2.70;;
12725;SDS011;6427;49.754;6.106;2022-11-15T06:55:17;7.93;;;3.37;;
12725;SDS011;6427;49.754;6.106;2022-11-15T06:57:48;5.33;;;3.23;;
12725;SDS011;6427;49.754;6.106;2022-11-15T07:00:16;6.30;;;2.70;;
12725;SDS011;6427;49.754;6.106;2022-11-15T07:02:43;3.73;;;2.40;;
12725;SDS011;6427;49.754;6.106;2022-11-15T07:05:11;4.23;;;2.03;;
12725;SDS011;6427;49.754;6.106;2022-11-15T07:07:39;3.97;;;2.47;;
12725;SDS011;6427;49.754;6.106;2022-11-15T07:10:07;9.33;;;2.93;;
12725;SDS011;6427;49.754;6.106;2022-11-15T07:12:35;4.37;;;2.50;;
12725;SDS011;6427;49.754;6.106;2022-11-15T07:15:02;3.97;;;2.27;;
12725;SDS011;6427;49.754;6.106;2022-11-15T07:17:30;4.13;;;2.50;;
12725;SDS011;6427;49.754;6.106;2022-11-15T07:19:58;4.23;;;2.50;;
12725;SDS011;6427;49.754;6.106;2022-11-15T07:22:25;6.70;;;3.00;;
12725;SDS011;6427;49.754;6.106;2022-11-15T07:24:53;6.93;;;3.10;;
12725;SDS011;6427;49.754;6.106;2022-11-15T07:27:21;6.30;;;2.60;;
12725;SDS011;6427;49.754;6.106;2022-11-15T07:29:49;2.70;;;2.13;;
12725;SDS011;6427;49.754;6.106;2022-11-15T07:32:17;5.40;;;2.93;;
12725;SDS011;6427;49.754;6.106;2022-11-15T07:34:44;7.07;;;2.70;;
12725;SDS011;6427;49.754;6.106;2022-11-15T07:37:12;6.80;;;3.40;;
12725;SDS011;6427;49.754;6.106;2022-11-15T07:39:40;6.33;;;3.10;;
12725;SDS011;6427;49.754;6.106;2022-11-15T07:42:08;5.87;;;2.90;;
12725;SDS011;6427;49.754;6.106;2022-11-15T07:44:54;5.83;;;2.10;;
12725;SDS011;6427;49.754;6.106;2022-11-15T07:47:21;8.73;;;2.93;;
12725;SDS011;6427;49.754;6.106;2022-11-15T07:49:49;7.20;;;3.03;;
12725;SDS011;6427;49.754;6.106;2022-11-15T07:52:16;6.63;;;2.87;;
12725;SDS011;6427;49.754;6.106;2022-11-15T07:54:44;8.13;;;3.30;;
12725;SDS011;6427;49.754;6.106;2022-11-15T07:57:12;6.37;;;2.73;;
12725;SDS011;6427;49.754;6.106;2022-11-15T07:59:41;4.67;;;2.93;;
12725;SDS011;6427;49.754;6.106;2022-11-15T08:02:08;6.17;;;3.77;;
12725;SDS011;6427;49.754;6.106;2022-11-15T08:04:36;11.10;;;4.17;;
12725;SDS011;6427;49.754;6.106;2022-11-15T08:07:04;5.00;;;3.37;;
12725;SDS011;6427;49.754;6.106;2022-11-15T08:09:32;5.57;;;3.40;;
12725;SDS011;6427;49.754;6.106;2022-11-15T08:11:59;9.63;;;3.17;;
12725;SDS011;6427;49.754;6.106;2022-11-15T08:14:27;5.77;;;3.60;;
12725;SDS011;6427;49.754;6.106;2022-11-15T08:16:55;4.80;;;3.57;;
12725;SDS011;6427;49.754;6.106;2022-11-15T08:19:22;8.27;;;4.25;;
12725;SDS011;6427;49.754;6.106;2022-11-15T08:21:51;9.40;;;4.33;;
12725;SDS011;6427;49.754;6.106;2022-11-15T08:24:19;12.20;;;4.27;;
12725;SDS011;6427;49.754;6.106;2022-11-15T08:26:47;8.63;;;3.77;;
12725;SDS011;6427;49.754;6.106;2022-11-15T08:29:14;9.23;;;3.53;;
12725;SDS011;6427;49.754;6.106;2022-11-15T08:31:43;5.20;;;2.97;;
12725;SDS011;6427;49.754;6.106;2022-11-15T08:34:10;8.40;;;3.63;;
12725;SDS011;6427;49.754;6.106;2022-11-15T08:36:38;5.47;;;3.67;;
12725;SDS011;6427;49.754;6.106;2022-11-15T08:39:05;3.97;;;3.07;;
12725;SDS011;6427;49.754;6.106;2022-11-15T08:41:34;5.40;;;3.43;;
12725;SDS011;6427;49.754;6.106;2022-11-15T08:44:00;6.07;;;2.53;;
12725;SDS011;6427;49.754;6.106;2022-11-15T08:46:28;6.50;;;2.93;;
12725;SDS011;6427;49.754;6.106;2022-11-15T08:48:55;6.83;;;2.50;;
12725;SDS011;6427;49.754;6.106;2022-11-15T08:51:23;6.57;;;2.87;;
12725;SDS011;6427;49.754;6.106;2022-11-15T08:53:50;4.43;;;2.50;;
12725;SDS011;6427;49.754;6.106;2022-11-15T08:56:18;7.82;;;3.50;;
12725;SDS011;6427;49.754;6.106;2022-11-15T08:58:46;14.60;;;3.00;;
12725;SDS011;6427;49.754;6.106;2022-11-15T09:01:18;8.43;;;2.80;;
12725;SDS011;6427;49.754;6.106;2022-11-15T09:03:44;9.98;;;3.50;;
12725;SDS011;6427;49.754;6.106;2022-11-15T09:06:12;6.67;;;3.53;;
12725;SDS011;6427;49.754;6.106;2022-11-15T09:08:40;6.97;;;3.73;;
12725;SDS011;6427;49.754;6.106;2022-11-15T09:11:08;7.83;;;3.43;;
12725;SDS011;6427;49.754;6.106;2022-11-15T09:13:35;8.27;;;3.80;;
12725;SDS011;6427;49.754;6.106;2022-11-15T09:16:03;9.17;;;3.70;;
12725;SDS011;6427;49.754;6.106;2022-11-15T09:18:31;7.23;;;3.43;;
12725;SDS011;6427;49.754;6.106;2022-11-15T09:20:59;8.10;;;3.60;;
12725;SDS011;6427;49.754;6.106;2022-11-15T09:23:26;11.90;;;3.73;;
12725;SDS011;6427;49.754;6.106;2022-11-15T09:25:57;5.20;;;3.67;;
12725;SDS011;6427;49.754;6.106;2022-11-15T09:28:22;10.23;;;4.10;;
12725;SDS011;6427;49.754;6.106;2022-11-15T09:30:50;8.53;;;3.20;;
12725;SDS011;6427;49.754;6.106;2022-11-15T09:33:18;4.23;;;3.10;;
12725;SDS011;6427;49.754;6.106;2022-11-15T09:35:46;6.43;;;3.40;;
12725;SDS011;6427;49.754;6.106;2022-11-15T09:38:14;4.90;;;3.20;;
12725;SDS011;6427;49.754;6.106;2022-11-15T09:40:41;6.80;;;3.13;;
12725;SDS011;6427;49.754;6.106;2022-11-15T09:43:19;7.53;;;3.60;;
12725;SDS011;6427;49.754;6.106;2022-11-15T09:45:50;7.50;;;3.87;;
12725;SDS011;6427;49.754;6.106;2022-11-15T09:48:26;8.67;;;3.20;;
12725;SDS011;6427;49.754;6.106;2022-11-15T09:50:56;4.87;;;3.13;;
12725;SDS011;6427;49.754;6.106;2022-11-15T09:56:15;4.93;;;2.77;;
12725;SDS011;6427;49.754;6.106;2022-11-15T09:58:41;4.80;;;3.17;;
12725;SDS011;6427;49.754;6.106;2022-11-15T10:01:08;9.03;;;3.23;;
12725;SDS011;6427;49.754;6.106;2022-11-15T10:03:35;5.87;;;3.20;;
12725;SDS011;6427;49.754;6.106;2022-11-15T10:06:03;5.07;;;3.40;;
12725;SDS011;6427;49.754;6.106;2022-11-15T10:11:19;5.77;;;3.03;;
12725;SDS011;6427;49.754;6.106;2022-11-15T10:13:44;6.83;;;3.90;;
12725;SDS011;6427;49.754;6.106;2022-11-15T10:24:44;9.67;;;5.03;;
12725;SDS011;6427;49.754;6.106;2022-11-15T10:27:12;10.77;;;5.50;;
12725;SDS011;6427;49.754;6.106;2022-11-15T10:29:48;8.33;;;5.53;;
12725;SDS011;6427;49.754;6.106;2022-11-15T10:32:17;9.57;;;5.10;;
12725;SDS011;6427;49.754;6.106;2022-11-15T10:34:43;8.50;;;5.37;;
12725;SDS011;6427;49.754;6.106;2022-11-15T10:37:10;8.23;;;5.17;;
12725;SDS011;6427;49.754;6.106;2022-11-15T10:39:38;9.90;;;6.50;;
12725;SDS011;6427;49.754;6.106;2022-11-15T10:42:16;10.53;;;5.57;;
12725;SDS011;6427;49.754;6.106;2022-11-15T10:44:46;7.93;;;5.50;;
12725;SDS011;6427;49.754;6.106;2022-11-15T10:47:24;9.47;;;5.37;;
12725;SDS011;6427;49.754;6.106;2022-11-15T10:49:58;8.00;;;5.20;;
12725;SDS011;6427;49.754;6.106;2022-11-15T10:52:24;7.60;;;5.67;;
12725;SDS011;6427;49.754;6.106;2022-11-15T10:57:30;7.13;;;5.37;;
12725;SDS011;6427;49.754;6.106;2022-11-15T10:59:59;7.40;;;5.33;;
12725;SDS011;6427;49.754;6.106;2022-11-15T11:02:29;8.33;;;5.47;;
12725;SDS011;6427;49.754;6.106;2022-11-15T11:04:58;8.80;;;5.30;;
12725;SDS011;6427;49.754;6.106;2022-11-15T11:07:27;7.03;;;5.00;;
12725;SDS011;6427;49.754;6.106;2022-11-15T11:09:59;5.90;;;5.10;;
12725;SDS011;6427;49.754;6.106;2022-11-15T11:12:34;9.13;;;5.27;;
12725;SDS011;6427;49.754;6.106;2022-11-15T11:15:00;7.95;;;6.20;;
12725;SDS011;6427;49.754;6.106;2022-11-15T11:17:32;6.40;;;5.03;;
12725;SDS011;6427;49.754;6.106;2022-11-15T11:20:24;6.07;;;5.27;;
12725;SDS011;6427;49.754;6.106;2022-11-15T11:28:42;8.85;;;5.80;;
12725;SDS011;6427;49.754;6.106;2022-11-15T11:42:13;6.50;;;4.57;;
12725;SDS011;6427;49.754;6.106;2022-11-15T11:45:44;6.77;;;4.73;;
12725;SDS011;6427;49.754;6.106;2022-11-15T11:47:35;5.63;;;3.87;;
12725;SDS011;6427;49.754;6.106;2022-11-15T11:50:10;7.43;;;4.50;;
12725;SDS011;6427;49.754;6.106;2022-11-15T11:52:31;7.05;;;4.72;;
12725;SDS011;6427;49.754;6.106;2022-11-15T11:55:10;6.77;;;3.90;;
12725;SDS011;6427;49.754;6.106;2022-11-15T11:58:01;5.27;;;4.10;;
12725;SDS011;6427;49.754;6.106;2022-11-15T12:00:23;7.53;;;4.20;;
12725;SDS011;6427;49.754;6.106;2022-11-15T12:03:03;7.83;;;4.27;;
12725;SDS011;6427;49.754;6.106;2022-11-15T12:05:32;6.37;;;3.93;;
12725;SDS011;6427;49.754;6.106;2022-11-15T12:11:06;5.77;;;3.90;;
12725;SDS011;6427;49.754;6.106;2022-11-15T12:13:30;5.90;;;3.30;;
12725;SDS011;6427;49.754;6.106;2022-11-15T12:18:31;6.17;;;3.93;;
12725;SDS011;6427;49.754;6.106;2022-11-15T12:21:13;5.97;;;3.83;;
12725;SDS011;6427;49.754;6.106;2022-11-15T12:23:41;6.33;;;4.23;;
12725;SDS011;6427;49.754;6.106;2022-11-15T12:26:08;6.30;;;3.60;;
12725;SDS011;6427;49.754;6.106;2022-11-15T12:28:40;4.17;;;3.47;;
12725;SDS011;6427;49.754;6.106;2022-11-15T12:31:10;6.73;;;4.20;;
12725;SDS011;6427;49.754;6.106;2022-11-15T12:33:43;6.67;;;4.00;;
12725;SDS011;6427;49.754;6.106;2022-11-15T12:41:28;4.37;;;3.57;;
12725;SDS011;6427;49.754;6.106;2022-11-15T12:43:54;5.97;;;3.60;;
12725;SDS011;6427;49.754;6.106;2022-11-15T12:49:00;5.03;;;3.10;;
12725;SDS011;6427;49.754;6.106;2022-11-15T12:54:55;6.77;;;3.50;;
12725;SDS011;6427;49.754;6.106;2022-11-15T13:02:19;8.10;;;3.50;;
12725;SDS011;6427;49.754;6.106;2022-11-15T13:04:54;4.70;;;3.03;;
12725;SDS011;6427;49.754;6.106;2022-11-15T13:10:52;6.13;;;3.00;;
12725;SDS011;6427;49.754;6.106;2022-11-15T13:17:51;4.67;;;2.47;;
12725;SDS011;6427;49.754;6.106;2022-11-15T13:20:23;6.20;;;2.53;;
12725;SDS011;6427;49.754;6.106;2022-11-15T13:22:50;5.20;;;2.67;;
12725;SDS011;6427;49.754;6.106;2022-11-15T13:30:52;4.63;;;2.70;;
12725;SDS011;6427;49.754;6.106;2022-11-15T13:36:22;3.07;;;2.33;;
12725;SDS011;6427;49.754;6.106;2022-11-15T13:38:33;4.90;;;2.58;;
12725;SDS011;6427;49.754;6.106;2022-11-15T13:41:11;5.10;;;2.60;;
12725;SDS011;6427;49.754;6.106;2022-11-15T13:43:37;4.28;;;2.78;;
12725;SDS011;6427;49.754;6.106;2022-11-15T13:48:46;3.07;;;2.30;;
12725;SDS011;6427;49.754;6.106;2022-11-15T13:54:01;3.77;;;2.07;;
12725;SDS011;6427;49.754;6.106;2022-11-15T13:56:26;3.50;;;2.73;;
12725;SDS011;6427;49.754;6.106;2022-11-15T13:58:54;3.17;;;2.60;;
12725;SDS011;6427;49.754;6.106;2022-11-15T14:01:22;5.47;;;2.73;;
12725;SDS011;6427;49.754;6.106;2022-11-15T14:03:50;3.20;;;2.70;;
12725;SDS011;6427;49.754;6.106;2022-11-15T14:06:20;5.43;;;2.40;;
12725;SDS011;6427;49.754;6.106;2022-11-15T14:11:29;4.30;;;2.50;;
12725;SDS011;6427;49.754;6.106;2022-11-15T14:16:42;3.00;;;2.40;;
12725;SDS011;6427;49.754;6.106;2022-11-15T14:19:05;4.30;;;2.43;;
12725;SDS011;6427;49.754;6.106;2022-11-15T14:21:32;3.43;;;2.60;;
12725;SDS011;6427;49.754;6.106;2022-11-15T14:24:19;3.20;;;2.17;;
12725;SDS011;6427;49.754;6.106;2022-11-15T14:26:47;3.47;;;2.67;;
12725;SDS011;6427;49.754;6.106;2022-11-15T14:29:27;4.20;;;2.20;;
12725;SDS011;6427;49.754;6.106;2022-11-15T14:31:49;2.87;;;2.17;;
12725;SDS011;6427;49.754;6.106;2022-11-15T14:34:16;2.23;;;1.97;;
12725;SDS011;6427;49.754;6.106;2022-11-15T14:36:45;2.57;;;1.87;;
12725;SDS011;6427;49.754;6.106;2022-11-15T14:39:12;2.43;;;2.07;;
12725;SDS011;6427;49.754;6.106;2022-11-15T14:41:40;3.07;;;1.87;;
12725;SDS011;6427;49.754;6.106;2022-11-15T14:44:09;2.57;;;1.57;;
12725;SDS011;6427;49.754;6.106;2022-11-15T14:46:35;3.73;;;1.90;;
12725;SDS011;6427;49.754;6.106;2022-11-15T14:49:03;3.33;;;1.97;;
12725;SDS011;6427;49.754;6.106;2022-11-15T14:51:30;4.00;;;1.90;;
12725;SDS011;6427;49.754;6.106;2022-11-15T14:53:58;3.53;;;1.70;;
12725;SDS011;6427;49.754;6.106;2022-11-15T14:56:26;2.10;;;1.40;;
12725;SDS011;6427;49.754;6.106;2022-11-15T14:58:53;3.37;;;1.57;;
12725;SDS011;6427;49.754;6.106;2022-11-15T15:01:23;2.67;;;1.70;;
12725;SDS011;6427;49.754;6.106;2022-11-15T15:03:49;3.55;;;2.00;;
12725;SDS011;6427;49.754;6.106;2022-11-15T15:06:16;6.87;;;1.90;;
12725;SDS011;6427;49.754;6.106;2022-11-15T15:08:44;2.33;;;1.70;;
12725;SDS011;6427;49.754;6.106;2022-11-15T15:11:14;4.00;;;1.80;;
12725;SDS011;6427;49.754;6.106;2022-11-15T15:13:41;3.17;;;1.97;;
12725;SDS011;6427;49.754;6.106;2022-11-15T15:16:08;3.70;;;1.80;;
12725;SDS011;6427;49.754;6.106;2022-11-15T15:18:36;1.83;;;1.63;;
12725;SDS011;6427;49.754;6.106;2022-11-15T15:21:04;2.70;;;1.63;;
12725;SDS011;6427;49.754;6.106;2022-11-15T15:23:31;1.97;;;1.53;;
12725;SDS011;6427;49.754;6.106;2022-11-15T15:25:59;2.83;;;2.03;;
12725;SDS011;6427;49.754;6.106;2022-11-15T15:28:27;2.13;;;1.70;;
12725;SDS011;6427;49.754;6.106;2022-11-15T15:30:55;2.43;;;1.80;;
12725;SDS011;6427;49.754;6.106;2022-11-15T15:33:22;1.90;;;1.70;;
12725;SDS011;6427;49.754;6.106;2022-11-15T15:35:50;2.87;;;2.05;;
12725;SDS011;6427;49.754;6.106;2022-11-15T15:38:18;3.00;;;2.13;;
12725;SDS011;6427;49.754;6.106;2022-11-15T15:40:45;3.37;;;2.23;;
12725;SDS011;6427;49.754;6.106;2022-11-15T15:43:13;3.53;;;2.03;;
12725;SDS011;6427;49.754;6.106;2022-11-15T15:45:41;4.40;;;2.30;;
12725;SDS011;6427;49.754;6.106;2022-11-15T15:48:15;3.07;;;1.93;;
12725;SDS011;6427;49.754;6.106;2022-11-15T15:50:42;3.97;;;2.57;;
12725;SDS011;6427;49.754;6.106;2022-11-15T15:53:10;3.97;;;2.13;;
12725;SDS011;6427;49.754;6.106;2022-11-15T15:55:38;4.73;;;2.57;;
12725;SDS011;6427;49.754;6.106;2022-11-15T15:58:05;2.63;;;1.93;;
12725;SDS011;6427;49.754;6.106;2022-11-15T16:00:33;3.47;;;1.93;;
12725;SDS011;6427;49.754;6.106;2022-11-15T16:03:00;4.10;;;2.13;;
12725;SDS011;6427;49.754;6.106;2022-11-15T16:05:28;3.47;;;2.20;;
12725;SDS011;6427;49.754;6.106;2022-11-15T16:07:56;4.20;;;2.30;;
12725;SDS011;6427;49.754;6.106;2022-11-15T16:10:42;2.90;;;2.30;;
12725;SDS011;6427;49.754;6.106;2022-11-15T16:12:54;3.07;;;2.10;;
12725;SDS011;6427;49.754;6.106;2022-11-15T16:15:23;3.23;;;2.13;;
12725;SDS011;6427;49.754;6.106;2022-11-15T16:17:50;4.37;;;2.73;;
12725;SDS011;6427;49.754;6.106;2022-11-15T16:20:22;4.28;;;2.87;;
12725;SDS011;6427;49.754;6.106;2022-11-15T16:22:54;3.67;;;2.50;;
12725;SDS011;6427;49.754;6.106;2022-11-15T16:25:23;2.77;;;2.20;;
12725;SDS011;6427;49.754;6.106;2022-11-15T16:27:50;3.20;;;2.58;;
12725;SDS011;6427;49.754;6.106;2022-11-15T16:30:20;4.15;;;2.75;;
12725;SDS011;6427;49.754;6.106;2022-11-15T16:32:45;5.07;;;2.70;;
12725;SDS011;6427;49.754;6.106;2022-11-15T16:35:13;4.13;;;2.20;;
12725;SDS011;6427;49.754;6.106;2022-11-15T16:37:41;4.00;;;2.70;;
12725;SDS011;6427;49.754;6.106;2022-11-15T16:40:32;4.53;;;2.57;;
12725;SDS011;6427;49.754;6.106;2022-11-15T16:42:43;3.20;;;2.70;;
12725;SDS011;6427;49.754;6.106;2022-11-15T16:45:11;6.83;;;2.23;;
12725;SDS011;6427;49.754;6.106;2022-11-15T16:47:38;6.07;;;2.90;;
12725;SDS011;6427;49.754;6.106;2022-11-15T16:50:10;4.93;;;3.00;;
12725;SDS011;6427;49.754;6.106;2022-11-15T16:52:34;5.72;;;3.00;;